createdAt,value
2017-06-29T00:01:26.326Z,20.53
2017-06-29T00:03:53.855Z,20.17
2017-06-29T00:09:04.043Z,19.40
2017-06-29T00:11:31.654Z,20.47
2017-06-29T00:13:59.156Z,19.10
2017-06-29T00:16:27.380Z,20.03
2017-06-29T00:18:59.795Z,18.93
2017-06-29T00:21:28.425Z,20.03
2017-06-29T00:23:55.833Z,20.40
2017-06-29T00:26:23.845Z,20.53
2017-06-29T00:28:52.028Z,20.43
2017-06-29T00:31:20.187Z,19.50
2017-06-29T00:33:48.308Z,19.80
2017-06-29T00:36:16.488Z,19.37
2017-06-29T00:38:44.115Z,18.93
2017-06-29T00:41:11.628Z,18.23
2017-06-29T00:43:39.147Z,20.10
2017-06-29T00:46:06.728Z,20.30
2017-06-29T00:48:34.242Z,19.93
2017-06-29T00:51:01.768Z,18.33
2017-06-29T00:53:29.339Z,20.23
2017-06-29T00:55:56.850Z,20.33
2017-06-29T00:58:24.394Z,20.23
2017-06-29T01:00:52.005Z,19.87
2017-06-29T01:03:19.504Z,19.63
2017-06-29T01:05:47.042Z,20.33
2017-06-29T01:08:14.603Z,21.20
2017-06-29T01:10:42.115Z,19.50
2017-06-29T01:13:09.650Z,19.37
2017-06-29T01:15:37.229Z,21.00
2017-06-29T01:18:05.115Z,21.00
2017-06-29T01:20:32.632Z,19.90
2017-06-29T01:23:00.182Z,20.50
2017-06-29T01:25:27.698Z,19.50
2017-06-29T01:27:55.199Z,20.17
2017-06-29T01:30:22.765Z,21.03
2017-06-29T01:32:50.287Z,20.57
2017-06-29T01:35:17.823Z,20.47
2017-06-29T01:37:45.422Z,20.50
2017-06-29T01:40:12.933Z,18.87
2017-06-29T01:42:40.438Z,21.97
2017-06-29T01:45:08.018Z,20.83
2017-06-29T01:47:35.548Z,21.53
2017-06-29T01:50:03.121Z,20.67
2017-06-29T01:52:30.683Z,23.20
2017-06-29T01:54:58.194Z,21.87
2017-06-29T01:57:25.734Z,19.97
2017-06-29T01:59:53.277Z,22.10
2017-06-29T02:02:20.873Z,21.37
2017-06-29T02:04:48.386Z,21.20
2017-06-29T02:07:15.931Z,20.43
2017-06-29T02:09:43.494Z,20.37
2017-06-29T02:12:11.003Z,21.23
2017-06-29T02:14:38.533Z,20.70
2017-06-29T02:17:06.109Z,21.23
2017-06-29T02:19:33.936Z,20.20
2017-06-29T02:22:01.452Z,22.00
2017-06-29T02:24:29.114Z,21.53
2017-06-29T02:26:56.631Z,19.90
2017-06-29T02:29:24.145Z,21.17
2017-06-29T02:31:51.699Z,21.50
2017-06-29T02:34:19.243Z,19.57
2017-06-29T02:36:46.753Z,21.90
2017-06-29T02:39:14.308Z,19.13
2017-06-29T02:41:41.835Z,20.10
2017-06-29T02:44:09.400Z,20.60
2017-06-29T02:46:36.960Z,20.30
2017-06-29T02:49:04.483Z,19.77
2017-06-29T02:51:32.015Z,22.00
2017-06-29T02:53:59.592Z,20.33
2017-06-29T02:56:27.096Z,19.90
2017-06-29T02:58:55.194Z,20.87
2017-06-29T03:01:22.762Z,22.10
2017-06-29T03:03:50.271Z,21.17
2017-06-29T03:06:17.779Z,21.67
2017-06-29T03:08:45.360Z,22.90
2017-06-29T03:11:12.885Z,22.87
2017-06-29T03:13:40.389Z,23.70
2017-06-29T03:16:07.951Z,22.57
2017-06-29T03:18:35.466Z,23.30
2017-06-29T03:21:02.968Z,22.70
2017-06-29T03:23:30.524Z,23.20
2017-06-29T03:25:58.032Z,23.27
2017-06-29T03:28:25.541Z,22.50
2017-06-29T03:30:53.114Z,22.37
2017-06-29T03:33:20.674Z,24.13
2017-06-29T03:35:48.184Z,23.23
2017-06-29T03:38:15.745Z,22.90
2017-06-29T03:40:43.254Z,22.57
2017-06-29T03:43:10.765Z,24.43
2017-06-29T03:45:38.331Z,22.33
2017-06-29T03:48:05.846Z,22.37
2017-06-29T03:50:33.372Z,22.70
2017-06-29T03:53:00.921Z,21.80
2017-06-29T03:55:28.443Z,23.40
2017-06-29T03:57:55.952Z,23.63
2017-06-29T04:00:23.504Z,23.03
2017-06-29T04:02:51.024Z,24.20
2017-06-29T04:05:18.535Z,23.80
2017-06-29T04:07:46.098Z,24.80
2017-06-29T04:10:13.620Z,24.47
2017-06-29T04:12:41.137Z,23.43
2017-06-29T04:15:08.690Z,24.27
2017-06-29T04:17:36.220Z,23.83
2017-06-29T04:20:03.735Z,23.83
2017-06-29T04:22:31.315Z,24.87
2017-06-29T04:24:58.987Z,24.77
2017-06-29T04:27:26.506Z,23.37
2017-06-29T04:29:54.081Z,24.97
2017-06-29T04:32:21.677Z,23.33
2017-06-29T04:34:49.205Z,24.10
2017-06-29T04:37:16.717Z,23.70
2017-06-29T04:39:44.309Z,23.00
2017-06-29T04:42:11.839Z,23.80
2017-06-29T04:44:39.347Z,21.40
2017-06-29T04:47:06.924Z,20.77
2017-06-29T04:49:34.487Z,22.13
2017-06-29T04:52:01.995Z,22.37
2017-06-29T04:54:29.562Z,20.67
2017-06-29T04:56:57.073Z,20.97
2017-06-29T04:59:24.581Z,21.33
2017-06-29T05:01:52.133Z,21.63
2017-06-29T05:04:19.668Z,20.60
2017-06-29T05:06:47.172Z,21.97
2017-06-29T05:09:15.002Z,21.27
2017-06-29T05:11:42.509Z,22.13
2017-06-29T05:14:10.042Z,22.17
2017-06-29T05:16:37.644Z,22.20
2017-06-29T05:19:05.149Z,23.53
2017-06-29T05:21:32.685Z,21.97
2017-06-29T05:24:00.231Z,23.07
2017-06-29T05:26:27.744Z,26.17
2017-06-29T05:28:55.264Z,22.80
2017-06-29T05:31:22.856Z,29.37
2017-06-29T05:33:50.378Z,22.67
2017-06-29T05:36:17.901Z,23.80
2017-06-29T05:38:45.494Z,22.60
2017-06-29T05:41:13.002Z,22.00
2017-06-29T05:43:40.519Z,21.60
2017-06-29T05:46:08.165Z,22.70
2017-06-29T05:48:35.761Z,21.60
2017-06-29T05:51:03.305Z,21.80
2017-06-29T05:53:30.866Z,22.07
2017-06-29T05:55:58.401Z,20.77
2017-06-29T05:58:25.929Z,21.43
2017-06-29T06:00:53.488Z,21.10
2017-06-29T06:03:20.998Z,24.00
2017-06-29T06:05:48.526Z,21.83
2017-06-29T06:08:16.086Z,22.37
2017-06-29T06:10:43.630Z,21.67
2017-06-29T06:13:11.160Z,22.80
2017-06-29T06:15:38.737Z,21.43
2017-06-29T06:18:06.290Z,20.30
2017-06-29T06:20:33.803Z,21.07
2017-06-29T06:23:01.362Z,21.50
2017-06-29T06:25:28.892Z,22.30
2017-06-29T06:27:56.413Z,20.97
2017-06-29T06:30:24.112Z,22.13
2017-06-29T06:32:51.619Z,21.90
2017-06-29T06:35:19.148Z,20.13
2017-06-29T06:37:46.717Z,20.03
2017-06-29T06:40:14.251Z,19.67
2017-06-29T06:42:41.763Z,18.43
2017-06-29T06:45:09.322Z,18.60
2017-06-29T06:47:36.841Z,18.87
2017-06-29T06:50:04.345Z,19.67
2017-06-29T06:52:31.915Z,20.37
2017-06-29T06:54:59.421Z,19.90
2017-06-29T06:57:26.920Z,20.07
2017-06-29T06:59:54.474Z,20.43
2017-06-29T07:02:22.039Z,20.67
2017-06-29T07:04:49.557Z,19.67
2017-06-29T07:07:17.070Z,20.17
2017-06-29T07:09:44.626Z,19.20
2017-06-29T07:12:12.141Z,19.07
2017-06-29T07:14:40.037Z,19.70
2017-06-29T07:17:07.595Z,18.73
2017-06-29T07:19:35.123Z,18.30
2017-06-29T07:22:02.670Z,17.70
2017-06-29T07:24:30.236Z,17.13
2017-06-29T07:26:57.755Z,17.37
2017-06-29T07:29:25.302Z,17.07
2017-06-29T07:31:52.904Z,16.80
2017-06-29T07:34:20.476Z,16.40
2017-06-29T07:36:47.997Z,17.50
2017-06-29T07:39:15.602Z,17.60
2017-06-29T07:41:43.105Z,15.57
2017-06-29T07:44:10.670Z,16.10
2017-06-29T07:46:38.241Z,16.90
2017-06-29T07:49:05.760Z,14.93
2017-06-29T07:51:33.307Z,15.63
2017-06-29T07:54:00.858Z,15.20
2017-06-29T07:56:28.382Z,13.93
2017-06-29T07:58:55.902Z,15.20
2017-06-29T08:01:23.516Z,14.73
2017-06-29T08:03:51.030Z,16.30
2017-06-29T08:06:18.555Z,15.23
2017-06-29T08:08:46.112Z,15.60
2017-06-29T08:11:13.617Z,15.60
2017-06-29T08:13:41.143Z,15.20
2017-06-29T08:16:08.709Z,18.90
2017-06-29T08:18:36.208Z,17.30
2017-06-29T08:21:03.709Z,15.23
2017-06-29T08:23:31.271Z,14.93
2017-06-29T08:25:58.802Z,15.70
2017-06-29T08:28:26.306Z,14.00
2017-06-29T08:30:53.921Z,13.50
2017-06-29T08:33:21.428Z,14.27
2017-06-29T08:35:48.957Z,15.10
2017-06-29T08:38:16.522Z,16.17
2017-06-29T08:40:44.047Z,15.47
2017-06-29T08:43:11.577Z,14.23
2017-06-29T08:45:39.120Z,16.90
2017-06-29T08:48:06.652Z,17.33
2017-06-29T08:50:34.170Z,16.77
2017-06-29T08:53:01.746Z,15.10
2017-06-29T08:55:29.268Z,15.90
2017-06-29T08:57:56.782Z,15.30
2017-06-29T09:00:24.357Z,16.70
2017-06-29T09:02:51.865Z,16.83
2017-06-29T09:05:19.386Z,16.00
2017-06-29T09:07:46.988Z,16.37
2017-06-29T09:10:14.489Z,15.63
2017-06-29T09:12:42.000Z,13.93
2017-06-29T09:15:09.562Z,16.07
2017-06-29T09:17:37.068Z,15.27
2017-06-29T09:20:04.590Z,15.83
2017-06-29T09:22:32.155Z,16.50
2017-06-29T09:24:59.661Z,15.53
2017-06-29T09:27:27.179Z,16.17
2017-06-29T09:29:54.746Z,16.00
2017-06-29T09:32:22.305Z,16.97
2017-06-29T09:34:49.822Z,16.00
2017-06-29T09:37:17.333Z,15.37
2017-06-29T09:39:44.879Z,15.27
2017-06-29T09:42:12.382Z,14.83
2017-06-29T09:44:39.898Z,14.40
2017-06-29T09:47:07.453Z,14.30
2017-06-29T09:49:34.969Z,15.17
2017-06-29T09:52:02.524Z,14.37
2017-06-29T09:54:30.071Z,12.60
2017-06-29T09:56:57.593Z,12.80
2017-06-29T09:59:25.123Z,11.90
2017-06-29T10:01:52.698Z,11.00
2017-06-29T10:04:20.220Z,10.90
2017-06-29T10:06:47.765Z,11.50
2017-06-29T10:09:15.334Z,10.63
2017-06-29T10:11:42.859Z,11.33
2017-06-29T10:14:10.421Z,10.57
2017-06-29T10:16:38.014Z,10.60
2017-06-29T10:19:05.545Z,11.60
2017-06-29T10:21:33.114Z,10.37
2017-06-29T10:24:00.662Z,9.07
2017-06-29T10:26:28.495Z,9.03
2017-06-29T10:28:55.999Z,7.93
2017-06-29T10:31:23.551Z,7.80
2017-06-29T10:33:51.049Z,7.00
2017-06-29T10:36:18.561Z,7.07
2017-06-29T10:38:46.119Z,8.17
2017-06-29T10:41:13.651Z,6.70
2017-06-29T10:43:41.174Z,7.87
2017-06-29T10:46:08.732Z,8.37
2017-06-29T10:48:36.252Z,6.87
2017-06-29T10:51:03.789Z,5.90
2017-06-29T10:53:31.349Z,8.27
2017-06-29T10:55:58.901Z,8.13
2017-06-29T10:58:26.427Z,6.00
2017-06-29T11:00:54.022Z,6.17
2017-06-29T11:03:21.546Z,7.10
2017-06-29T11:05:49.064Z,7.00
2017-06-29T11:08:16.620Z,6.30
2017-06-29T11:10:44.127Z,4.83
2017-06-29T11:13:11.636Z,5.67
2017-06-29T11:15:39.226Z,5.07
2017-06-29T11:18:06.729Z,4.90
2017-06-29T11:20:34.216Z,4.20
2017-06-29T11:23:01.761Z,5.30
2017-06-29T11:25:29.273Z,6.47
2017-06-29T11:27:56.812Z,4.63
2017-06-29T11:30:24.385Z,4.90
2017-06-29T11:32:51.890Z,5.80
2017-06-29T11:35:19.385Z,4.57
2017-06-29T11:37:46.975Z,5.10
2017-06-29T11:40:14.486Z,4.77
2017-06-29T11:42:42.765Z,4.40
2017-06-29T11:45:10.412Z,4.47
2017-06-29T11:47:37.948Z,4.40
2017-06-29T11:50:05.468Z,5.20
2017-06-29T11:52:33.101Z,4.37
2017-06-29T11:55:00.622Z,4.30
2017-06-29T11:57:28.132Z,3.90
2017-06-29T11:59:55.696Z,4.70
2017-06-29T12:02:23.246Z,4.63
2017-06-29T12:04:50.754Z,4.23
2017-06-29T12:07:18.261Z,4.87
2017-06-29T12:09:45.814Z,4.93
2017-06-29T12:12:13.315Z,4.20
2017-06-29T12:14:40.837Z,4.87
2017-06-29T12:17:08.387Z,4.50
2017-06-29T12:19:35.911Z,5.47
2017-06-29T12:22:03.437Z,5.87
2017-06-29T12:24:31.004Z,5.73
2017-06-29T12:26:58.538Z,4.90
2017-06-29T12:29:26.062Z,5.20
2017-06-29T12:31:53.636Z,4.53
2017-06-29T12:34:21.137Z,4.43
2017-06-29T12:36:48.658Z,5.53
2017-06-29T12:39:16.225Z,5.37
2017-06-29T12:41:43.744Z,5.30
2017-06-29T12:44:11.247Z,4.73
2017-06-29T12:46:38.805Z,5.23
2017-06-29T12:49:06.374Z,6.53
2017-06-29T12:51:33.894Z,4.50
2017-06-29T12:54:01.452Z,4.90
2017-06-29T12:56:28.978Z,4.67
2017-06-29T12:58:56.496Z,5.57
2017-06-29T13:01:24.049Z,4.90
2017-06-29T13:03:51.558Z,5.37
2017-06-29T13:06:19.071Z,4.47
2017-06-29T13:08:46.625Z,4.97
2017-06-29T13:11:14.139Z,5.47
2017-06-29T13:13:41.635Z,4.70
2017-06-29T13:16:09.197Z,5.20
2017-06-29T13:18:36.721Z,4.80
2017-06-29T13:21:04.255Z,5.10
2017-06-29T13:23:31.825Z,5.83
2017-06-29T13:25:59.393Z,5.80
2017-06-29T13:28:26.913Z,4.90
2017-06-29T13:30:54.494Z,4.83
2017-06-29T13:33:22.049Z,5.67
2017-06-29T13:35:49.556Z,4.70
2017-06-29T13:38:17.107Z,5.00
2017-06-29T13:40:44.606Z,4.80
2017-06-29T13:43:12.140Z,4.57
2017-06-29T13:45:39.960Z,4.53
2017-06-29T13:48:07.494Z,4.50
2017-06-29T13:50:35.016Z,4.47
2017-06-29T13:53:02.614Z,4.80
2017-06-29T13:55:30.138Z,4.90
2017-06-29T13:57:57.658Z,4.60
2017-06-29T14:00:25.227Z,5.70
2017-06-29T14:02:52.734Z,4.30
2017-06-29T14:05:20.253Z,5.13
2017-06-29T14:07:47.827Z,5.10
2017-06-29T14:10:15.340Z,5.20
2017-06-29T14:12:42.833Z,4.40
2017-06-29T14:15:10.415Z,4.87
2017-06-29T14:17:37.945Z,5.83
2017-06-29T14:20:05.461Z,4.77
2017-06-29T14:22:33.040Z,5.20
2017-06-29T14:25:00.559Z,6.23
2017-06-29T14:27:28.403Z,5.10
2017-06-29T14:29:55.962Z,4.73
2017-06-29T14:32:24.685Z,4.90
2017-06-29T14:34:52.201Z,4.93
2017-06-29T14:37:20.269Z,4.77
2017-06-29T14:39:47.832Z,5.60
2017-06-29T14:42:15.344Z,5.90
2017-06-29T14:44:42.844Z,5.20
2017-06-29T14:47:10.422Z,5.30
2017-06-29T14:49:37.928Z,5.33
2017-06-29T14:52:05.444Z,6.73
2017-06-29T14:54:32.991Z,5.27
2017-06-29T14:57:00.499Z,5.77
2017-06-29T14:59:28.013Z,5.53
2017-06-29T15:01:55.561Z,5.43
2017-06-29T15:04:23.071Z,5.10
2017-06-29T15:06:50.592Z,5.63
2017-06-29T15:09:18.890Z,5.43
2017-06-29T15:11:46.729Z,5.53
2017-06-29T15:14:15.210Z,5.47
2017-06-29T15:16:42.788Z,5.73
2017-06-29T15:19:10.639Z,5.07
2017-06-29T15:21:38.181Z,5.17
2017-06-29T15:24:05.819Z,4.83
2017-06-29T15:26:34.825Z,5.70
2017-06-29T15:29:02.353Z,6.00
2017-06-29T15:31:29.924Z,4.97
2017-06-29T15:33:57.445Z,6.30
2017-06-29T15:36:27.661Z,5.40
2017-06-29T15:38:55.233Z,5.90
2017-06-29T15:41:23.131Z,8.27
2017-06-29T15:43:51.001Z,5.53
2017-06-29T15:46:19.729Z,5.87
2017-06-29T15:48:48.736Z,6.50
2017-06-29T15:51:16.282Z,6.30
2017-06-29T15:53:43.875Z,6.50
2017-06-29T15:56:11.725Z,5.27
2017-06-29T15:58:39.636Z,5.20
2017-06-29T16:01:07.208Z,6.37
2017-06-29T16:03:34.743Z,7.00
2017-06-29T16:06:02.282Z,6.50
2017-06-29T16:08:29.837Z,5.40
2017-06-29T16:10:57.355Z,6.20
2017-06-29T16:13:25.167Z,6.30
2017-06-29T16:15:52.794Z,6.20
2017-06-29T16:18:20.318Z,6.43
2017-06-29T16:20:48.032Z,6.57
2017-06-29T16:23:15.596Z,6.60
2017-06-29T16:25:43.117Z,7.07
2017-06-29T16:28:10.650Z,6.10
2017-06-29T16:30:38.220Z,10.50
2017-06-29T16:33:05.761Z,9.80
2017-06-29T16:35:34.621Z,7.10
2017-06-29T16:38:02.305Z,11.10
2017-06-29T16:40:30.560Z,8.40
2017-06-29T16:42:58.190Z,7.93
2017-06-29T16:45:25.778Z,8.67
2017-06-29T16:47:53.614Z,7.27
2017-06-29T16:50:21.130Z,6.93
2017-06-29T16:52:48.888Z,8.63
2017-06-29T16:55:16.734Z,7.53
2017-06-29T16:57:44.631Z,7.60
2017-06-29T17:00:12.390Z,6.30
2017-06-29T17:02:39.958Z,6.70
2017-06-29T17:05:07.531Z,7.20
2017-06-29T17:07:35.120Z,7.17
2017-06-29T17:10:03.478Z,6.37
2017-06-29T17:12:30.976Z,7.50
2017-06-29T17:14:58.543Z,6.17
2017-06-29T17:17:26.110Z,7.67
2017-06-29T17:19:53.629Z,6.70
2017-06-29T17:22:21.206Z,7.23
2017-06-29T17:24:48.714Z,7.30
2017-06-29T17:27:16.210Z,6.77
2017-06-29T17:29:43.769Z,7.90
2017-06-29T17:32:11.313Z,6.97
2017-06-29T17:34:38.850Z,8.00
2017-06-29T17:37:06.378Z,7.67
2017-06-29T17:39:33.938Z,6.90
2017-06-29T17:42:01.458Z,6.63
2017-06-29T17:44:28.980Z,7.53
2017-06-29T17:46:56.568Z,7.77
2017-06-29T17:49:24.098Z,6.13
2017-06-29T17:51:51.685Z,6.53
2017-06-29T17:54:19.295Z,6.70
2017-06-29T17:56:46.807Z,6.40
2017-06-29T17:59:14.355Z,6.97
2017-06-29T18:01:41.939Z,6.30
2017-06-29T18:04:09.468Z,6.40
2017-06-29T18:06:37.056Z,6.67
2017-06-29T18:09:05.311Z,6.80
2017-06-29T18:11:33.621Z,6.87
2017-06-29T18:14:01.180Z,6.30
2017-06-29T18:16:28.910Z,7.43
2017-06-29T18:18:56.696Z,6.37
2017-06-29T18:21:24.259Z,6.20
2017-06-29T18:23:51.870Z,7.73
2017-06-29T18:26:19.467Z,5.60
2017-06-29T18:28:47.203Z,5.90
2017-06-29T18:31:14.786Z,6.20
2017-06-29T18:33:42.327Z,7.67
2017-06-29T18:36:09.862Z,7.63
2017-06-29T18:38:37.494Z,6.90
2017-06-29T18:41:05.283Z,7.37
2017-06-29T19:08:43.048Z,6.57
2017-06-29T19:11:10.615Z,6.25
2017-06-29T19:13:38.384Z,6.20
2017-06-29T19:16:05.998Z,7.17
2017-06-29T19:18:33.582Z,6.53
2017-06-29T19:21:01.133Z,6.30
2017-06-29T19:23:28.696Z,5.60
2017-06-29T19:25:56.281Z,6.10
2017-06-29T19:28:23.823Z,6.73
2017-06-29T19:30:51.447Z,6.83
2017-06-29T19:33:19.021Z,7.00
2017-06-29T19:35:46.603Z,5.57
2017-06-29T19:38:14.189Z,6.70
2017-06-29T19:40:41.937Z,6.20
2017-06-29T19:43:09.705Z,7.40
2017-06-29T19:45:37.309Z,6.20
2017-06-29T19:48:04.868Z,6.90
2017-06-29T19:50:33.649Z,7.40
2017-06-29T19:53:01.210Z,7.63
2017-06-29T19:55:28.764Z,6.80
2017-06-29T19:57:56.324Z,7.03
2017-06-29T20:00:24.008Z,6.60
2017-06-29T20:02:51.593Z,6.37
2017-06-29T20:05:19.173Z,6.60
2017-06-29T20:07:46.770Z,6.70
2017-06-29T20:10:14.370Z,7.23
2017-06-29T20:12:41.928Z,7.23
2017-06-29T20:15:09.531Z,7.43
2017-06-29T20:17:37.143Z,6.47
2017-06-29T20:20:04.704Z,6.67
2017-06-29T20:22:32.298Z,7.50
2017-06-29T20:24:59.892Z,7.30
2017-06-29T20:27:27.704Z,7.00
2017-06-29T20:29:55.296Z,6.30
2017-06-29T20:32:22.908Z,7.50
2017-06-29T20:34:50.462Z,6.20
2017-06-29T20:37:18.064Z,5.93
2017-06-29T20:39:45.673Z,7.10
2017-06-29T20:42:13.221Z,6.70
2017-06-29T20:44:41.494Z,7.20
2017-06-29T20:47:09.067Z,7.97
2017-06-29T20:49:36.677Z,6.87
2017-06-29T20:52:04.507Z,7.63
2017-06-29T20:54:32.121Z,6.80
2017-06-29T20:56:59.644Z,7.33
2017-06-29T20:59:27.244Z,7.97
2017-06-29T21:01:54.841Z,7.33
2017-06-29T21:04:22.411Z,6.57
2017-06-29T21:06:49.968Z,7.03
2017-06-29T21:09:17.601Z,7.00
2017-06-29T21:11:45.201Z,7.43
2017-06-29T21:14:12.786Z,7.50
2017-06-29T21:16:40.431Z,8.37
2017-06-29T21:19:07.992Z,8.00
2017-06-29T21:21:35.760Z,8.47
2017-06-29T21:24:03.347Z,7.43
2017-06-29T21:26:30.900Z,8.17
2017-06-29T21:28:58.456Z,7.33
2017-06-29T21:31:26.065Z,6.10
2017-06-29T21:33:53.628Z,6.40
2017-06-29T21:36:21.153Z,6.23
2017-06-29T21:38:48.959Z,6.47
2017-06-29T21:41:16.528Z,6.20
2017-06-29T21:43:44.070Z,6.07
2017-06-29T21:46:11.665Z,5.50
2017-06-29T21:48:39.219Z,5.83
2017-06-29T21:51:06.766Z,6.30
2017-06-29T21:53:34.327Z,7.10
2017-06-29T21:56:02.261Z,5.70
2017-06-29T21:58:30.059Z,6.57
2017-06-29T22:00:57.634Z,5.50
2017-06-29T22:03:25.522Z,6.50
2017-06-29T22:05:53.096Z,6.77
2017-06-29T22:08:20.817Z,14.13
2017-06-29T22:10:48.651Z,6.80
2017-06-29T22:13:16.164Z,5.90
2017-06-29T22:15:44.280Z,6.00
2017-06-29T22:18:11.812Z,6.20
2017-06-29T22:20:39.695Z,6.27
2017-06-29T22:23:07.278Z,6.73
2017-06-29T22:25:34.846Z,5.00
2017-06-29T22:28:02.449Z,6.10
2017-06-29T22:30:30.132Z,5.43
2017-06-29T22:32:57.737Z,6.70
2017-06-29T22:35:25.323Z,5.60
2017-06-29T22:37:52.932Z,6.37
2017-06-29T22:40:20.703Z,6.43
2017-06-29T22:42:48.288Z,5.83
2017-06-29T22:45:15.894Z,6.63
2017-06-29T22:47:43.490Z,6.00
2017-06-29T22:50:11.012Z,6.37
2017-06-29T22:52:38.650Z,6.03
2017-06-29T22:55:06.250Z,6.13
2017-06-29T22:57:34.005Z,6.17
2017-06-29T23:00:01.613Z,6.30
2017-06-29T23:02:29.218Z,5.70
2017-06-29T23:04:56.817Z,5.43
2017-06-29T23:07:24.425Z,5.33
2017-06-29T23:09:52.013Z,6.17
2017-06-29T23:12:19.600Z,5.87
2017-06-29T23:14:47.194Z,6.43
2017-06-29T23:17:14.816Z,5.60
2017-06-29T23:19:42.586Z,5.30
2017-06-29T23:22:10.150Z,5.97
2017-06-29T23:24:37.751Z,5.63
2017-06-29T23:27:05.338Z,5.83
2017-06-29T23:29:32.902Z,5.90
2017-06-29T23:32:00.500Z,7.10
2017-06-29T23:34:28.421Z,5.37
2017-06-29T23:36:56.015Z,5.97
2017-06-29T23:39:23.610Z,5.03
2017-06-29T23:41:51.192Z,5.93
2017-06-29T23:44:18.969Z,6.50
2017-06-29T23:46:46.778Z,5.70
2017-06-29T23:49:14.528Z,7.37
2017-06-29T23:51:42.263Z,5.40
2017-06-29T23:54:09.879Z,6.30
2017-06-29T23:56:38.392Z,6.60
2017-06-29T23:59:06.164Z,6.77
